This is the latest recevied weather packets stored in our database for station/object DO1BDB-12. If no packets are shown the sender has not sent any weather packets the latest 10 day(s).
| Time | Temp. | Humidity | Pressure | Rain* | Wind** | Luminosity | Snow |
|---|---|---|---|---|---|---|---|
| 1777041350 | 17.22° C | 50% | 101.7 hPa | - | - | - | - |
| 1777041285 | 17.22° C | 51% | 101.7 hPa | - | - | - | - |
| 1777041219 | 17.22° C | 51% | 101.7 hPa | - | - | - | - |
| 1777041153 | 17.78° C | 49% | 101.7 hPa | - | - | - | - |
| 1777041087 | 17.78° C | 50% | 101.7 hPa | - | - | - | - |
| 1777041022 | 17.78° C | 50% | 101.7 hPa | - | - | - | - |
| 1777040955 | 17.78° C | 50% | 101.7 hPa | - | - | - | - |
| 1777040890 | 17.22° C | 51% | 101.7 hPa | - | - | - | - |
| 1777040824 | 17.78° C | 50% | 101.7 hPa | - | - | - | - |
| 1777040758 | 17.78° C | 49% | 101.7 hPa | - | - | - | - |
| 1777040692 | 18.33° C | 49% | 101.6 hPa | - | - | - | - |
| 1777040626 | 18.33° C | 48% | 101.6 hPa | - | - | - | - |
| 1777040561 | 18.33° C | 49% | 101.6 hPa | - | - | - | - |
| 1777040495 | 18.33° C | 48% | 101.7 hPa | - | - | - | - |
| 1777040429 | 18.89° C | 47% | 101.7 hPa | - | - | - | - |
| 1777040363 | 20° C | 44% | 101.6 hPa | - | - | - | - |
| 1777040297 | 20° C | 47% | 101.7 hPa | - | - | - | - |
| 1777040231 | 20° C | 45% | 101.6 hPa | - | - | - | - |
| 1777040165 | 20° C | 46% | 101.7 hPa | - | - | - | - |
| 1777040100 | 19.44° C | 47% | 101.7 hPa | - | - | - | - |
| 1777040034 | 19.44° C | 46% | 101.7 hPa | - | - | - | - |
| 1777039968 | 20° C | 47% | 101.7 hPa | - | - | - | - |
| 1777039902 | 19.44° C | 48% | 101.7 hPa | - | - | - | - |
| 1777039836 | 18.33° C | 49% | 101.7 hPa | - | - | - | - |
| 1777039770 | 17.78° C | 50% | 101.7 hPa | - | - | - | - |
* Rain since midnight (hover to see other rain measurements)
** Current wind speed in m/s (hover to see current wind gust speed)